Time;durP1;ratioP1;P1;durP2;ratioP2;P2;SDS_P1;SDS_P2;PMS_P1;PMS_P2;Temp;Humidity;BMP_temperature;BMP_pressure;BME280_temperature;BME280_humidity;BME280_pressure;Samples;Min_cycle;Max_cycle;Signal;HPM_P1;HPM_P2
2023/08/03 00:00:02;;;;;;;5.53;2.30;;;;;;;;;;5021813;28;20038;-63
2023/08/03 00:02:33;;;;;;;6.05;2.40;;;;;;;;;;5017810;28;20045;-64
2023/08/03 00:05:00;;;;;;;5.70;2.50;;;;;;;;;;5017957;28;20074;-64
2023/08/03 00:07:26;;;;;;;6.63;2.70;;;;;;;;;;5016497;28;20120;-64
2023/08/03 00:09:53;;;;;;;6.72;2.70;;;;;;;;;;5016005;28;20854;-64
2023/08/03 00:12:20;;;;;;;6.15;2.35;;;;;;;;;;5016211;28;20129;-63
2023/08/03 00:14:46;;;;;;;7.75;2.72;;;;;;;;;;5014551;28;20045;-64
2023/08/03 00:17:13;;;;;;;5.88;2.15;;;;;;;;;;5016970;28;20137;-63
2023/08/03 00:19:39;;;;;;;5.97;2.33;;;;;;;;;;5016744;28;21682;-64
2023/08/03 00:22:06;;;;;;;9.20;2.95;;;;;;;;;;5017051;28;20049;-64
2023/08/03 00:24:33;;;;;;;5.85;2.15;;;;;;;;;;5015228;28;20600;-65
2023/08/03 00:26:59;;;;;;;7.18;2.72;;;;;;;;;;5016000;28;20565;-65
2023/08/03 00:29:26;;;;;;;10.50;2.65;;;;;;;;;;5016152;28;20117;-63
2023/08/03 00:31:53;;;;;;;11.45;3.42;;;;;;;;;;5015772;28;20124;-63
2023/08/03 01:07:12;;;;;;;8.10;2.60;;;;;;;;;;4999987;28;20445;-64
2023/08/03 01:09:38;;;;;;;5.78;2.63;;;;;;;;;;4969817;28;20912;-66
2023/08/03 01:12:05;;;;;;;7.65;2.30;;;;;;;;;;4972062;28;20042;-64
2023/08/03 01:14:32;;;;;;;8.68;2.30;;;;;;;;;;5000450;28;20042;-65
2023/08/03 01:16:58;;;;;;;11.23;2.42;;;;;;;;;;4986106;28;20041;-66
2023/08/03 01:19:25;;;;;;;6.20;2.55;;;;;;;;;;4974007;28;20066;-65
2023/08/03 01:21:53;;;;;;;6.47;2.40;;;;;;;;;;4971719;28;20042;-65
2023/08/03 01:24:20;;;;;;;5.80;2.60;;;;;;;;;;4969042;28;20042;-64
2023/08/03 01:26:47;;;;;;;7.40;2.42;;;;;;;;;;4969694;28;20059;-65
2023/08/03 01:29:13;;;;;;;8.40;2.22;;;;;;;;;;4969703;28;20046;-64
2023/08/03 01:31:40;;;;;;;6.40;2.20;;;;;;;;;;4969217;28;20043;-64
2023/08/03 01:34:08;;;;;;;5.85;2.10;;;;;;;;;;4969172;28;20122;-65
2023/08/03 01:36:35;;;;;;;4.85;2.42;;;;;;;;;;4970525;28;20133;-64
2023/08/03 01:39:08;;;;;;;4.90;1.88;;;;;;;;;;5001463;28;20054;-66
2023/08/03 01:41:35;;;;;;;9.18;3.17;;;;;;;;;;4969819;28;20504;-64
2023/08/03 01:44:21;;;;;;;8.13;2.45;;;;;;;;;;4983531;28;20165;-65
2023/08/03 01:46:48;;;;;;;9.18;2.53;;;;;;;;;;4968790;28;20515;-65
2023/08/03 01:49:15;;;;;;;6.25;2.75;;;;;;;;;;4968597;28;20153;-64
2023/08/03 01:51:41;;;;;;;8.85;2.30;;;;;;;;;;4968179;28;20167;-64
2023/08/03 01:54:10;;;;;;;5.63;2.30;;;;;;;;;;4968006;28;20054;-64
2023/08/03 01:56:37;;;;;;;8.20;2.58;;;;;;;;;;4966856;28;20038;-64
2023/08/03 01:59:03;;;;;;;7.03;2.35;;;;;;;;;;4968685;28;20047;-64
2023/08/03 02:01:30;;;;;;;7.68;2.88;;;;;;;;;;4968360;28;20101;-64
2023/08/03 02:03:56;;;;;;;7.80;2.30;;;;;;;;;;4968569;28;20056;-64
2023/08/03 02:06:23;;;;;;;7.45;2.58;;;;;;;;;;4967193;28;20051;-64
2023/08/03 02:08:50;;;;;;;5.85;2.05;;;;;;;;;;4968413;28;20039;-64
2023/08/03 02:11:16;;;;;;;8.40;2.63;;;;;;;;;;4968252;28;20042;-65
2023/08/03 02:13:43;;;;;;;7.63;2.40;;;;;;;;;;4966541;28;20047;-64
2023/08/03 02:16:10;;;;;;;7.18;2.20;;;;;;;;;;4969675;28;20054;-64
2023/08/03 02:18:39;;;;;;;9.70;3.42;;;;;;;;;;4956919;28;20046;-65
2023/08/03 02:21:05;;;;;;;5.78;2.88;;;;;;;;;;4955810;28;20070;-65
2023/08/03 02:23:32;;;;;;;7.80;3.20;;;;;;;;;;4948049;28;20034;-65
2023/08/03 02:26:02;;;;;;;7.82;2.78;;;;;;;;;;4957043;28;20058;-65
2023/08/03 02:28:29;;;;;;;8.50;2.58;;;;;;;;;;4956121;28;20046;-66
2023/08/03 02:30:56;;;;;;;7.05;2.20;;;;;;;;;;4958346;28;20039;-67
2023/08/03 02:33:23;;;;;;;6.85;2.45;;;;;;;;;;4970251;28;20091;-66
2023/08/03 02:35:49;;;;;;;5.65;2.70;;;;;;;;;;4951441;28;20054;-65
2023/08/03 02:38:16;;;;;;;7.32;2.67;;;;;;;;;;4950264;28;20046;-67
2023/08/03 02:40:42;;;;;;;10.85;2.63;;;;;;;;;;4952380;28;20058;-65
2023/08/03 02:43:09;;;;;;;6.78;2.50;;;;;;;;;;4963931;28;20162;-69
2023/08/03 02:45:36;;;;;;;7.80;2.40;;;;;;;;;;4949744;28;20102;-67
2023/08/03 02:48:03;;;;;;;6.03;2.65;;;;;;;;;;4950527;28;20662;-66
2023/08/03 02:50:29;;;;;;;6.47;2.38;;;;;;;;;;4948281;28;20046;-66
2023/08/03 02:52:56;;;;;;;9.00;2.53;;;;;;;;;;4981327;28;20290;-66
2023/08/03 02:55:22;;;;;;;7.13;2.75;;;;;;;;;;4948795;28;20170;-66
2023/08/03 02:57:49;;;;;;;14.52;2.80;;;;;;;;;;4950675;28;20070;-67
2023/08/03 03:00:16;;;;;;;7.35;2.90;;;;;;;;;;4952647;28;21048;-65
2023/08/03 03:02:43;;;;;;;11.18;2.72;;;;;;;;;;4949688;28;20519;-65
2023/08/03 03:05:10;;;;;;;8.05;2.97;;;;;;;;;;4950129;28;20063;-66
2023/08/03 03:07:36;;;;;;;11.18;2.70;;;;;;;;;;4965347;28;20111;-66
2023/08/03 03:10:03;;;;;;;9.55;2.60;;;;;;;;;;4952045;28;20058;-65
2023/08/03 03:12:30;;;;;;;8.45;2.63;;;;;;;;;;4952265;28;20057;-64
2023/08/03 03:14:56;;;;;;;6.22;2.60;;;;;;;;;;4952125;28;20126;-66
2023/08/03 03:17:23;;;;;;;6.15;2.92;;;;;;;;;;4983868;28;20107;-68
2023/08/03 03:19:50;;;;;;;6.53;2.75;;;;;;;;;;4952989;28;20070;-65
2023/08/03 03:22:16;;;;;;;9.20;3.65;;;;;;;;;;4949483;28;20081;-66
2023/08/03 03:25:02;;;;;;;9.57;2.80;;;;;;;;;;4949690;28;20050;-65
2023/08/03 03:27:29;;;;;;;8.35;2.80;;;;;;;;;;4951441;28;20054;-65
2023/08/03 03:29:56;;;;;;;10.90;2.50;;;;;;;;;;4964946;28;20042;-66
2023/08/03 03:32:22;;;;;;;6.03;2.78;;;;;;;;;;4964436;28;20039;-66
2023/08/03 03:34:49;;;;;;;8.88;2.97;;;;;;;;;;4963496;28;21006;-65
2023/08/03 03:37:15;;;;;;;7.15;2.80;;;;;;;;;;4960594;28;20097;-67
2023/08/03 03:39:42;;;;;;;11.77;3.00;;;;;;;;;;4963421;28;20198;-66
2023/08/03 03:42:09;;;;;;;7.00;3.25;;;;;;;;;;4964687;28;21313;-65
2023/08/03 03:44:36;;;;;;;9.88;2.75;;;;;;;;;;4978491;28;20050;-66
2023/08/03 03:47:02;;;;;;;7.63;2.72;;;;;;;;;;4963684;28;20140;-66
2023/08/03 03:49:29;;;;;;;6.78;2.50;;;;;;;;;;4965449;28;20045;-66
2023/08/03 03:51:56;;;;;;;12.60;2.83;;;;;;;;;;4965943;28;21121;-66
2023/08/03 03:54:22;;;;;;;10.75;2.97;;;;;;;;;;4961933;28;20051;-66
2023/08/03 03:56:49;;;;;;;6.60;2.47;;;;;;;;;;4965378;28;20129;-65
2023/08/03 03:59:15;;;;;;;9.30;2.60;;;;;;;;;;4953014;28;20049;-67
2023/08/03 04:01:42;;;;;;;10.35;2.88;;;;;;;;;;4948037;28;20105;-68
2023/08/03 04:04:09;;;;;;;7.45;2.80;;;;;;;;;;4948907;28;20093;-66
2023/08/03 04:06:55;;;;;;;6.75;2.97;;;;;;;;;;4965165;28;20473;-65
2023/08/03 04:09:22;;;;;;;8.88;2.95;;;;;;;;;;4962604;28;20867;-67
2023/08/03 04:11:48;;;;;;;8.10;2.80;;;;;;;;;;4962611;28;20181;-66
2023/08/03 04:14:15;;;;;;;7.97;2.80;;;;;;;;;;4963042;28;20049;-66
2023/08/03 04:16:42;;;;;;;8.30;2.70;;;;;;;;;;4964686;28;20042;-66
2023/08/03 04:19:09;;;;;;;7.82;2.65;;;;;;;;;;4965662;28;20070;-66
2023/08/03 04:21:35;;;;;;;10.88;2.67;;;;;;;;;;4966756;28;20046;-66
2023/08/03 04:24:02;;;;;;;10.25;3.10;;;;;;;;;;4971429;28;20093;-66
2023/08/03 04:26:28;;;;;;;5.95;2.80;;;;;;;;;;4964063;28;20050;-66
2023/08/03 04:28:55;;;;;;;8.38;2.47;;;;;;;;;;4964569;28;20681;-67
2023/08/03 04:31:22;;;;;;;8.10;2.53;;;;;;;;;;4964251;28;20049;-66
2023/08/03 04:33:48;;;;;;;11.20;2.83;;;;;;;;;;4964076;28;20034;-65
2023/08/03 04:36:15;;;;;;;8.13;3.03;;;;;;;;;;4971717;28;20547;-65
2023/08/03 04:39:01;;;;;;;11.98;2.53;;;;;;;;;;4994847;28;20136;-68
2023/08/03 04:41:28;;;;;;;9.80;2.55;;;;;;;;;;4996118;28;20486;-66
2023/08/03 04:43:54;;;;;;;8.25;2.50;;;;;;;;;;4998783;28;20105;-65
2023/08/03 04:46:21;;;;;;;13.15;3.13;;;;;;;;;;4992702;28;20046;-66
2023/08/03 04:48:48;;;;;;;13.57;4.35;;;;;;;;;;5004036;28;20055;-66
2023/08/03 04:51:14;;;;;;;9.00;3.15;;;;;;;;;;4995090;28;20060;-67
2023/08/03 04:53:41;;;;;;;7.43;3.10;;;;;;;;;;4994975;28;20042;-65
2023/08/03 04:56:07;;;;;;;7.13;2.55;;;;;;;;;;4995316;28;20053;-64
2023/08/03 04:58:34;;;;;;;7.65;2.33;;;;;;;;;;4989247;28;20432;-63
2023/08/03 05:01:01;;;;;;;6.93;2.90;;;;;;;;;;4996490;28;20050;-65
2023/08/03 05:03:27;;;;;;;7.85;2.88;;;;;;;;;;5004038;28;20162;-64
2023/08/03 05:05:54;;;;;;;8.70;2.50;;;;;;;;;;5002863;28;20076;-64
2023/08/03 05:08:22;;;;;;;10.23;3.38;;;;;;;;;;4990422;28;20089;-64
2023/08/03 05:10:50;;;;;;;7.72;3.10;;;;;;;;;;4990114;28;20085;-64
2023/08/03 05:13:17;;;;;;;7.93;3.28;;;;;;;;;;4989221;28;20045;-63
2023/08/03 05:15:44;;;;;;;13.07;3.10;;;;;;;;;;4983293;28;20499;-66
2023/08/03 05:18:11;;;;;;;12.77;3.28;;;;;;;;;;4957132;28;20091;-67
2023/08/03 05:20:38;;;;;;;8.40;2.65;;;;;;;;;;4956618;28;20516;-67
2023/08/03 05:23:06;;;;;;;5.68;2.55;;;;;;;;;;4954894;28;20054;-65
2023/08/03 05:25:32;;;;;;;12.20;3.08;;;;;;;;;;4954890;28;20182;-66
2023/08/03 05:28:01;;;;;;;8.32;2.67;;;;;;;;;;4988027;28;20034;-68
2023/08/03 05:30:28;;;;;;;10.57;3.03;;;;;;;;;;4968691;28;20049;-66
2023/08/03 05:32:56;;;;;;;11.60;3.10;;;;;;;;;;4957462;28;20042;-64
2023/08/03 05:35:23;;;;;;;12.02;2.95;;;;;;;;;;4973358;28;20034;-67
2023/08/03 05:37:53;;;;;;;9.05;3.40;;;;;;;;;;5001749;28;20043;-65
2023/08/03 05:40:20;;;;;;;10.18;2.60;;;;;;;;;;4969913;28;20207;-64
2023/08/03 05:42:47;;;;;;;9.48;3.47;;;;;;;;;;4970494;28;20042;-68
2023/08/03 05:45:34;;;;;;;11.20;3.05;;;;;;;;;;4968801;28;20054;-68
2023/08/03 05:48:01;;;;;;;12.05;3.30;;;;;;;;;;4968429;28;20082;-66
2023/08/03 05:50:28;;;;;;;15.00;3.38;;;;;;;;;;4971463;28;20134;-65
2023/08/03 05:52:54;;;;;;;8.63;3.30;;;;;;;;;;4973065;28;20054;-66
2023/08/03 05:55:22;;;;;;;6.47;2.72;;;;;;;;;;4974382;28;20039;-64
2023/08/03 05:57:48;;;;;;;7.40;3.13;;;;;;;;;;4971515;28;20076;-65
2023/08/03 06:00:21;;;;;;;9.90;3.40;;;;;;;;;;4963391;28;20047;-66
2023/08/03 06:02:49;;;;;;;8.65;3.40;;;;;;;;;;4961213;28;20155;-65
2023/08/03 06:05:34;;;;;;;11.32;3.50;;;;;;;;;;4959848;28;20097;-65
2023/08/03 06:08:00;;;;;;;9.38;3.10;;;;;;;;;;4973207;28;20046;-65
2023/08/03 06:10:27;;;;;;;8.57;3.80;;;;;;;;;;4977147;28;20039;-65
2023/08/03 06:12:54;;;;;;;6.60;3.15;;;;;;;;;;4975654;28;20039;-65
2023/08/03 06:15:21;;;;;;;13.93;3.35;;;;;;;;;;4978208;28;20070;-65
2023/08/03 06:17:47;;;;;;;9.93;3.53;;;;;;;;;;4978334;28;20049;-65
2023/08/03 06:20:14;;;;;;;12.43;3.97;;;;;;;;;;4975946;28;20108;-65
2023/08/03 06:22:41;;;;;;;8.60;3.17;;;;;;;;;;4976264;28;20038;-66
2023/08/03 06:25:10;;;;;;;8.32;3.80;;;;;;;;;;4977962;28;20348;-65
2023/08/03 06:27:40;;;;;;;8.10;2.95;;;;;;;;;;4977166;28;20043;-65
2023/08/03 06:30:13;;;;;;;12.57;3.50;;;;;;;;;;4976190;28;20442;-64
2023/08/03 06:32:39;;;;;;;;;;;;;;;;;;4975390;28;20045;-65
2023/08/03 06:35:06;;;;;;;8.85;3.80;;;;;;;;;;4975628;28;19921;-66
2023/08/03 06:37:32;;;;;;;14.23;3.88;;;;;;;;;;4974676;28;20173;-66
2023/08/03 06:39:59;;;;;;;9.65;3.40;;;;;;;;;;4975832;28;20130;-65
2023/08/03 06:42:26;;;;;;;8.90;2.75;;;;;;;;;;4975603;28;20403;-65
2023/08/03 06:44:52;;;;;;;8.75;3.25;;;;;;;;;;4975212;28;20053;-66
2023/08/03 06:47:19;;;;;;;9.15;3.63;;;;;;;;;;4974931;28;20046;-66
2023/08/03 06:49:45;;;;;;;7.18;3.10;;;;;;;;;;4975952;28;20519;-66
2023/08/03 06:52:12;;;;;;;8.93;3.38;;;;;;;;;;4991346;28;20057;-66
2023/08/03 06:54:39;;;;;;;10.32;3.42;;;;;;;;;;4976624;28;20050;-66
2023/08/03 06:57:06;;;;;;;9.38;3.60;;;;;;;;;;4977424;28;20415;-66
2023/08/03 06:59:32;;;;;;;9.52;3.42;;;;;;;;;;4977350;28;20050;-67
2023/08/03 07:01:59;;;;;;;7.18;3.80;;;;;;;;;;4976871;28;20073;-66
2023/08/03 07:04:25;;;;;;;7.22;3.72;;;;;;;;;;4983253;28;20042;-67
2023/08/03 07:06:52;;;;;;;11.18;3.63;;;;;;;;;;4989409;28;20176;-65
2023/08/03 07:09:19;;;;;;;7.05;3.95;;;;;;;;;;4990528;28;22349;-65
2023/08/03 07:11:46;;;;;;;12.45;4.15;;;;;;;;;;4990319;28;20053;-65
2023/08/03 07:14:12;;;;;;;12.60;3.85;;;;;;;;;;4990488;28;20065;-65
2023/08/03 07:16:39;;;;;;;8.63;3.95;;;;;;;;;;4989570;28;20853;-65
2023/08/03 07:19:10;;;;;;;8.20;4.43;;;;;;;;;;4990946;28;20043;-65
2023/08/03 07:21:36;;;;;;;12.68;4.78;;;;;;;;;;4991432;28;20102;-64
2023/08/03 07:24:03;;;;;;;12.90;5.22;;;;;;;;;;4992526;28;20070;-64
2023/08/03 07:26:29;;;;;;;11.32;4.43;;;;;;;;;;4991670;28;20077;-65
2023/08/03 07:28:57;;;;;;;9.02;4.97;;;;;;;;;;4993689;28;20042;-65
2023/08/03 07:31:24;;;;;;;11.65;5.20;;;;;;;;;;4991682;28;20065;-64
2023/08/03 07:33:51;;;;;;;9.00;4.43;;;;;;;;;;4992683;28;20665;-65
2023/08/03 07:36:18;;;;;;;8.85;5.03;;;;;;;;;;4986725;28;20061;-65
2023/08/03 07:38:45;;;;;;;12.85;4.95;;;;;;;;;;4977432;28;20046;-64
2023/08/03 07:41:12;;;;;;;12.35;5.07;;;;;;;;;;4977894;28;20045;-66
2023/08/03 07:43:38;;;;;;;10.68;4.93;;;;;;;;;;4975746;28;20042;-67
2023/08/03 07:46:06;;;;;;;8.20;5.03;;;;;;;;;;4977152;28;20494;-67
2023/08/03 07:48:32;;;;;;;10.50;5.10;;;;;;;;;;4975928;28;20031;-65
2023/08/03 07:50:59;;;;;;;9.43;5.60;;;;;;;;;;4975869;28;20063;-64
2023/08/03 07:53:25;;;;;;;12.55;5.43;;;;;;;;;;4974105;28;20031;-65
2023/08/03 07:55:52;;;;;;;10.57;5.13;;;;;;;;;;4974118;28;20046;-65
2023/08/03 07:58:19;;;;;;;10.93;5.20;;;;;;;;;;4974605;28;20043;-64
2023/08/03 08:00:45;;;;;;;10.63;5.28;;;;;;;;;;4974434;28;20126;-65
2023/08/03 08:03:12;;;;;;;11.77;5.72;;;;;;;;;;4972286;28;20042;-64
2023/08/03 08:05:38;;;;;;;9.57;5.05;;;;;;;;;;4973349;28;20216;-65
2023/08/03 08:08:05;;;;;;;11.50;5.35;;;;;;;;;;4972832;28;20093;-65
2023/08/03 08:10:32;;;;;;;8.57;5.00;;;;;;;;;;4972403;28;20133;-66
2023/08/03 08:12:58;;;;;;;9.70;5.07;;;;;;;;;;4973792;28;20042;-65
2023/08/03 08:15:25;;;;;;;8.07;4.90;;;;;;;;;;4972577;28;20282;-66
2023/08/03 08:17:52;;;;;;;10.77;5.47;;;;;;;;;;4973521;28;20050;-66
2023/08/03 08:20:18;;;;;;;9.20;5.20;;;;;;;;;;4975276;28;20058;-66
2023/08/03 08:22:45;;;;;;;11.15;5.43;;;;;;;;;;4972730;28;20034;-66
2023/08/03 08:25:12;;;;;;;10.02;5.68;;;;;;;;;;4972566;28;20038;-66
2023/08/03 08:27:38;;;;;;;10.68;5.53;;;;;;;;;;4974339;28;20117;-66
2023/08/03 08:30:05;;;;;;;10.15;5.05;;;;;;;;;;4976018;28;20106;-65
2023/08/03 08:32:32;;;;;;;13.45;5.53;;;;;;;;;;4973370;28;20042;-66
2023/08/03 08:34:59;;;;;;;11.70;5.85;;;;;;;;;;4973380;28;20126;-66
2023/08/03 08:37:27;;;;;;;8.18;5.40;;;;;;;;;;4972419;28;20035;-66
2023/08/03 08:39:54;;;;;;;9.65;4.97;;;;;;;;;;4974094;28;20508;-66
2023/08/03 08:42:21;;;;;;;10.27;5.18;;;;;;;;;;4974249;28;20038;-65
2023/08/03 08:44:47;;;;;;;8.68;5.18;;;;;;;;;;4983891;28;20125;-66
2023/08/03 08:47:14;;;;;;;11.23;5.47;;;;;;;;;;4989114;28;20073;-66
2023/08/03 08:49:41;;;;;;;9.68;5.47;;;;;;;;;;4973330;28;20579;-66
2023/08/03 08:52:08;;;;;;;11.38;5.40;;;;;;;;;;4975955;28;20128;-66
2023/08/03 08:54:35;;;;;;;7.45;4.47;;;;;;;;;;4975034;28;20176;-65
2023/08/03 08:57:02;;;;;;;11.40;5.32;;;;;;;;;;4974166;28;20046;-66
2023/08/03 08:59:28;;;;;;;10.68;5.40;;;;;;;;;;4975379;28;20042;-66
2023/08/03 09:01:55;;;;;;;9.23;5.10;;;;;;;;;;4979179;28;20127;-65
2023/08/03 09:04:29;;;;;;;12.25;5.55;;;;;;;;;;4974289;28;20048;-66
2023/08/03 09:06:55;;;;;;;11.70;5.93;;;;;;;;;;4976118;28;20104;-66
2023/08/03 09:09:29;;;;;;;12.90;5.43;;;;;;;;;;4975740;28;20664;-66
2023/08/03 09:11:55;;;;;;;8.02;4.40;;;;;;;;;;4990357;28;20045;-66
2023/08/03 09:14:23;;;;;;;8.63;5.43;;;;;;;;;;4978812;28;20065;-68
2023/08/03 09:16:49;;;;;;;8.73;5.15;;;;;;;;;;4977075;28;20042;-65
2023/08/03 09:19:35;;;;;;;10.00;5.72;;;;;;;;;;4975690;28;20045;-66
2023/08/03 09:22:01;;;;;;;9.13;4.72;;;;;;;;;;4974742;28;20050;-67
2023/08/03 09:24:28;;;;;;;16.17;6.53;;;;;;;;;;4973737;28;20042;-67
2023/08/03 09:26:55;;;;;;;12.55;5.85;;;;;;;;;;4974262;28;20047;-66
2023/08/03 09:29:22;;;;;;;9.90;5.85;;;;;;;;;;4977460;28;20030;-66
2023/08/03 09:31:48;;;;;;;12.90;6.93;;;;;;;;;;4977603;28;20038;-66
2023/08/03 09:34:15;;;;;;;13.07;6.07;;;;;;;;;;4978777;28;20049;-67
2023/08/03 09:36:48;;;;;;;10.90;5.40;;;;;;;;;;4976838;28;20039;-67
2023/08/03 09:39:16;;;;;;;16.60;6.15;;;;;;;;;;4978950;28;20046;-67
2023/08/03 09:41:43;;;;;;;11.73;6.95;;;;;;;;;;4977128;28;20057;-66
2023/08/03 09:44:12;;;;;;;12.63;6.03;;;;;;;;;;4980607;28;20092;-66
2023/08/03 09:46:38;;;;;;;12.77;5.65;;;;;;;;;;4981450;28;20077;-65
2023/08/03 09:49:05;;;;;;;15.98;5.53;;;;;;;;;;4990988;28;20038;-65
2023/08/03 09:51:32;;;;;;;18.10;7.45;;;;;;;;;;5002791;28;20053;-67
2023/08/03 09:54:22;;;;;;;10.85;5.85;;;;;;;;;;4989828;28;20049;-67
2023/08/03 09:56:52;;;;;;;11.55;6.30;;;;;;;;;;4992608;28;20035;-65
2023/08/03 09:59:23;;;;;;;16.85;6.32;;;;;;;;;;4992490;28;20038;-65
2023/08/03 10:01:51;;;;;;;12.75;7.15;;;;;;;;;;4989896;28;20057;-66
2023/08/03 10:04:18;;;;;;;13.25;5.57;;;;;;;;;;5005268;28;20042;-65
2023/08/03 10:06:45;;;;;;;13.57;6.40;;;;;;;;;;4985197;28;20050;-64
2023/08/03 10:09:14;;;;;;;14.90;6.68;;;;;;;;;;4978703;28;20452;-64
2023/08/03 10:11:43;;;;;;;15.15;7.20;;;;;;;;;;4977979;28;20038;-63
2023/08/03 10:14:10;;;;;;;11.63;6.40;;;;;;;;;;4977667;28;20134;-65
2023/08/03 10:16:40;;;;;;;13.18;6.97;;;;;;;;;;4975306;28;20026;-65
2023/08/03 10:19:07;;;;;;;10.52;6.07;;;;;;;;;;4977599;28;20038;-66
2023/08/03 10:21:34;;;;;;;12.68;6.38;;;;;;;;;;4975821;28;20038;-66
2023/08/03 10:24:20;;;;;;;12.32;6.85;;;;;;;;;;4977207;28;20045;-66
2023/08/03 10:26:54;;;;;;;13.13;6.28;;;;;;;;;;4976639;28;20511;-66
2023/08/03 10:29:40;;;;;;;12.73;7.53;;;;;;;;;;4975673;28;20134;-66
2023/08/03 10:32:06;;;;;;;16.02;8.10;;;;;;;;;;4976086;28;20172;-65
2023/08/03 10:34:36;;;;;;;18.35;9.55;;;;;;;;;;4974931;28;20792;-66
2023/08/03 10:37:12;;;;;;;19.60;8.10;;;;;;;;;;4975598;28;20050;-66
2023/08/03 10:39:49;;;;;;;15.98;8.75;;;;;;;;;;4975437;28;20528;-66
2023/08/03 10:42:20;;;;;;;15.30;9.00;;;;;;;;;;4975089;28;20045;-64
2023/08/03 10:44:47;;;;;;;17.60;9.30;;;;;;;;;;4975931;28;20053;-66
2023/08/03 10:47:29;;;;;;;21.58;9.52;;;;;;;;;;4975413;28;20054;-66
2023/08/03 10:49:57;;;;;;;13.68;8.50;;;;;;;;;;4974757;28;20047;-66
2023/08/03 10:52:31;;;;;;;16.35;8.73;;;;;;;;;;4973270;28;20404;-65
2023/08/03 10:54:58;;;;;;;12.73;6.50;;;;;;;;;;4974797;28;20038;-66
2023/08/03 10:57:31;;;;;;;15.32;8.27;;;;;;;;;;4974193;28;20035;-66
2023/08/03 11:00:03;;;;;;;15.63;8.60;;;;;;;;;;4975077;28;20125;-66
2023/08/03 11:02:30;;;;;;;16.30;9.52;;;;;;;;;;4973046;28;20339;-66
2023/08/03 11:05:01;;;;;;;15.32;8.95;;;;;;;;;;4974542;28;20074;-65
2023/08/03 11:07:34;;;;;;;13.55;8.25;;;;;;;;;;4973510;28;20069;-66
2023/08/03 11:10:01;;;;;;;19.90;10.88;;;;;;;;;;4974425;28;20117;-65
2023/08/03 11:12:28;;;;;;;20.92;9.85;;;;;;;;;;4973262;28;20035;-65
2023/08/03 11:14:56;;;;;;;19.05;10.35;;;;;;;;;;4973802;28;20034;-66
2023/08/03 11:17:24;;;;;;;27.23;12.73;;;;;;;;;;4973262;28;20121;-66
2023/08/03 11:19:51;;;;;;;20.88;10.73;;;;;;;;;;4974595;28;20439;-66
2023/08/03 11:22:21;;;;;;;21.60;11.68;;;;;;;;;;4972794;28;20353;-66
2023/08/03 11:24:48;;;;;;;17.75;10.32;;;;;;;;;;4987052;28;20449;-66
2023/08/03 11:27:15;;;;;;;23.63;13.65;;;;;;;;;;4974810;28;20078;-66
2023/08/03 11:29:42;;;;;;;23.25;11.52;;;;;;;;;;4972414;28;20045;-66
2023/08/03 11:32:11;;;;;;;25.25;14.15;;;;;;;;;;4973400;28;20059;-65
2023/08/03 11:34:40;;;;;;;21.92;9.65;;;;;;;;;;4973416;28;20050;-65
2023/08/03 11:37:08;;;;;;;24.70;15.32;;;;;;;;;;4973746;28;20110;-66
2023/08/03 11:39:34;;;;;;;26.13;16.35;;;;;;;;;;4973140;28;20443;-66
2023/08/03 11:42:02;;;;;;;26.15;15.45;;;;;;;;;;4973134;28;20176;-67
2023/08/03 11:44:28;;;;;;;18.13;11.60;;;;;;;;;;4965586;28;21803;-66
2023/08/03 11:47:08;;;;;;;23.60;14.88;;;;;;;;;;4983882;28;20054;-66
2023/08/03 11:49:36;;;;;;;18.13;10.82;;;;;;;;;;4978160;28;20046;-65
2023/08/03 11:52:02;;;;;;;24.05;15.43;;;;;;;;;;4973239;28;20042;-66
2023/08/03 11:54:31;;;;;;;24.30;14.82;;;;;;;;;;4975438;28;20065;-63
2023/08/03 11:59:46;;;;;;;25.70;15.05;;;;;;;;;;4972437;28;20700;-65
2023/08/03 12:02:13;;;;;;;28.42;16.30;;;;;;;;;;4985052;28;20137;-65
2023/08/03 12:04:40;;;;;;;28.30;16.45;;;;;;;;;;4967821;28;20050;-66
2023/08/03 12:07:07;;;;;;;26.48;16.05;;;;;;;;;;4972063;28;20050;-66
2023/08/03 12:09:56;;;;;;;26.77;15.20;;;;;;;;;;4974378;28;20034;-65
2023/08/03 12:12:23;;;;;;;27.25;15.55;;;;;;;;;;4975283;28;20104;-65
2023/08/03 16:56:11;;;;;;;26.85;13.43;;;;;;;;;;4999884;28;21007;-67
2023/08/03 17:04:44;;;;;;;22.63;12.48;;;;;;;;;;5056502;27;20758;-67
2023/08/03 17:14:43;;;;;;;21.52;12.05;;;;;;;;;;5029707;27;20447;-67
2023/08/03 17:17:11;;;;;;;22.65;12.35;;;;;;;;;;5013411;28;20252;-67
2023/08/03 17:19:37;;;;;;;22.40;12.93;;;;;;;;;;5011399;28;20045;-67
2023/08/03 17:22:04;;;;;;;25.88;13.07;;;;;;;;;;5013096;28;20033;-68
2023/08/03 17:24:31;;;;;;;25.40;12.65;;;;;;;;;;5011591;28;20038;-67
2023/08/03 17:26:57;;;;;;;21.23;12.07;;;;;;;;;;5012278;28;20042;-67
2023/08/03 17:29:24;;;;;;;21.23;11.85;;;;;;;;;;5050834;28;20474;-68
2023/08/03 17:31:51;;;;;;;20.85;12.23;;;;;;;;;;5036800;28;20556;-67
2023/08/03 17:34:18;;;;;;;20.90;12.65;;;;;;;;;;5035691;28;20111;-67
2023/08/03 17:36:46;;;;;;;23.48;12.55;;;;;;;;;;5035611;28;20045;-67
2023/08/03 17:39:13;;;;;;;22.35;12.55;;;;;;;;;;5036922;28;20127;-67
2023/08/03 17:41:39;;;;;;;22.85;11.25;;;;;;;;;;5035061;28;20044;-67
2023/08/03 17:44:06;;;;;;;18.13;11.15;;;;;;;;;;5034902;28;20048;-66
2023/08/03 17:46:34;;;;;;;23.58;13.25;;;;;;;;;;5035717;28;20049;-67
2023/08/03 17:49:00;;;;;;;22.75;11.65;;;;;;;;;;5036047;28;20170;-66
2023/08/03 17:51:27;;;;;;;23.55;12.05;;;;;;;;;;5034949;28;20041;-66
2023/08/03 17:54:13;;;;;;;21.30;12.32;;;;;;;;;;5019775;28;20054;-67
2023/08/03 17:56:42;;;;;;;21.85;11.70;;;;;;;;;;5018691;28;20132;-67
2023/08/03 17:59:09;;;;;;;20.95;12.18;;;;;;;;;;5019459;28;20141;-68
2023/08/03 18:01:35;;;;;;;22.58;12.30;;;;;;;;;;5018020;28;20034;-67
2023/08/03 18:04:04;;;;;;;22.52;11.90;;;;;;;;;;5018779;28;20029;-67
2023/08/03 18:06:31;;;;;;;19.13;11.43;;;;;;;;;;5018118;28;20084;-66
2023/08/03 18:08:58;;;;;;;19.88;11.48;;;;;;;;;;5019731;28;20087;-66
2023/08/03 18:11:25;;;;;;;20.13;11.60;;;;;;;;;;5017946;28;20653;-65
2023/08/03 18:13:52;;;;;;;22.65;10.60;;;;;;;;;;5018727;28;20405;-66
2023/08/03 18:16:19;;;;;;;24.02;11.82;;;;;;;;;;5015640;28;20119;-66
2023/08/03 18:18:49;;;;;;;23.33;11.32;;;;;;;;;;5020993;28;20134;-66
2023/08/03 18:21:16;;;;;;;22.30;11.35;;;;;;;;;;5020449;28;20043;-67
2023/08/03 20:04:33;;;;;;;16.30;10.00;;;;;;;;;;4994627;28;20444;-67
2023/08/03 20:06:59;;;;;;;18.60;10.38;;;;;;;;;;5000530;28;20073;-64
2023/08/03 20:09:27;;;;;;;18.42;10.57;;;;;;;;;;4990643;28;20053;-66
2023/08/03 20:11:54;;;;;;;20.42;10.68;;;;;;;;;;4989991;28;20081;-66
2023/08/03 20:14:24;;;;;;;18.83;9.63;;;;;;;;;;4991736;28;20521;-67
2023/08/03 20:16:51;;;;;;;22.50;9.85;;;;;;;;;;4991359;28;20158;-67
2023/08/03 20:19:17;;;;;;;19.02;10.82;;;;;;;;;;4990610;28;21829;-65
2023/08/03 20:21:44;;;;;;;15.88;10.10;;;;;;;;;;4991485;28;20042;-65
2023/08/03 20:24:11;;;;;;;17.98;10.45;;;;;;;;;;4989228;28;20584;-65
2023/08/03 20:26:38;;;;;;;17.90;10.23;;;;;;;;;;4989671;28;20105;-64
2023/08/03 20:29:04;;;;;;;20.85;9.65;;;;;;;;;;4990127;28;20097;-65
2023/08/03 20:31:31;;;;;;;17.90;9.45;;;;;;;;;;4990237;28;20042;-66
2023/08/03 20:33:58;;;;;;;19.50;10.90;;;;;;;;;;4990168;28;20492;-65
2023/08/03 20:36:25;;;;;;;16.83;9.38;;;;;;;;;;4991345;28;20137;-66
2023/08/03 20:38:51;;;;;;;18.77;10.05;;;;;;;;;;5006641;28;20053;-66
2023/08/03 20:41:18;;;;;;;18.88;10.27;;;;;;;;;;4991069;28;20097;-64
2023/08/03 20:43:45;;;;;;;15.43;9.07;;;;;;;;;;4990067;28;20412;-64
2023/08/03 20:46:11;;;;;;;16.90;10.55;;;;;;;;;;4991292;28;20045;-64
2023/08/03 20:48:38;;;;;;;20.17;11.30;;;;;;;;;;4988836;28;20061;-64
2023/08/03 20:51:05;;;;;;;17.20;10.13;;;;;;;;;;4989828;28;20061;-65
2023/08/03 20:53:32;;;;;;;19.48;10.88;;;;;;;;;;4989706;28;20111;-64
2023/08/03 20:55:59;;;;;;;18.95;10.68;;;;;;;;;;4990041;28;20136;-64
2023/08/03 20:58:26;;;;;;;21.30;10.80;;;;;;;;;;4989965;28;20045;-65
2023/08/03 21:00:53;;;;;;;18.45;10.65;;;;;;;;;;4989924;28;20047;-64
2023/08/03 21:03:20;;;;;;;22.52;11.18;;;;;;;;;;4989414;28;20478;-65
2023/08/03 21:05:47;;;;;;;21.45;12.45;;;;;;;;;;4989391;28;20102;-64
2023/08/03 21:08:15;;;;;;;18.92;10.60;;;;;;;;;;4989545;28;20038;-64
2023/08/03 21:10:42;;;;;;;22.63;11.77;;;;;;;;;;4988281;28;20034;-65
2023/08/03 21:13:09;;;;;;;17.77;10.30;;;;;;;;;;4989604;28;20038;-65
2023/08/03 21:15:35;;;;;;;21.38;10.73;;;;;;;;;;4987323;28;20042;-65
2023/08/03 21:18:02;;;;;;;17.88;10.07;;;;;;;;;;4976741;28;20491;-64
2023/08/03 21:20:29;;;;;;;19.98;10.13;;;;;;;;;;4982214;28;20092;-64
2023/08/03 21:22:56;;;;;;;16.73;10.00;;;;;;;;;;4976076;28;20045;-64
2023/08/03 21:25:22;;;;;;;19.65;10.25;;;;;;;;;;4975259;28;20043;-66
2023/08/03 21:27:49;;;;;;;17.58;10.50;;;;;;;;;;4975798;28;20093;-64
2023/08/03 21:30:15;;;;;;;17.20;11.10;;;;;;;;;;4977004;28;20038;-64
2023/08/03 21:32:43;;;;;;;20.15;10.98;;;;;;;;;;4976466;28;20525;-63
2023/08/03 21:35:10;;;;;;;18.75;11.05;;;;;;;;;;4987628;28;20460;-66
2023/08/03 21:37:40;;;;;;;17.98;10.27;;;;;;;;;;4979693;28;20120;-65
2023/08/03 21:40:07;;;;;;;20.05;10.70;;;;;;;;;;4978143;28;20387;-64
2023/08/03 21:42:34;;;;;;;15.90;9.77;;;;;;;;;;4985874;28;20055;-64
2023/08/03 21:45:00;;;;;;;19.58;10.40;;;;;;;;;;4977838;28;20046;-64
2023/08/03 21:47:30;;;;;;;15.95;10.23;;;;;;;;;;4977530;28;20039;-63